createdAt,value
2019-04-05T00:01:16.448Z,15.37
2019-04-05T00:04:04.224Z,14.33
2019-04-05T00:06:32.643Z,13.87
2019-04-05T00:09:01.071Z,14.03
2019-04-05T00:11:29.611Z,14.63
2019-04-05T00:13:58.043Z,14.13
2019-04-05T00:16:26.470Z,14.10
2019-04-05T00:18:54.911Z,13.60
2019-04-05T00:21:23.347Z,14.00
2019-04-05T00:23:51.771Z,15.23
2019-04-05T00:26:20.211Z,15.30
2019-04-05T00:28:51.558Z,14.77
2019-04-05T00:31:18.787Z,13.93
2019-04-05T00:33:47.220Z,14.43
2019-04-05T00:36:15.651Z,14.17
2019-04-05T00:38:44.079Z,15.97
2019-04-05T00:41:12.548Z,16.53
2019-04-05T00:43:41.224Z,15.20
2019-04-05T00:46:09.647Z,14.67
2019-04-05T00:48:38.088Z,15.03
2019-04-05T00:51:06.587Z,15.40
2019-04-05T00:53:35.079Z,16.07
2019-04-05T00:56:03.515Z,15.60
2019-04-05T00:58:32.019Z,15.90
2019-04-05T01:01:00.451Z,17.13
2019-04-05T01:03:28.896Z,16.60
2019-04-05T01:05:58.216Z,16.17
2019-04-05T01:08:26.915Z,16.77
2019-04-05T01:10:55.483Z,17.43
2019-04-05T01:13:24.251Z,16.90
2019-04-05T01:15:52.687Z,17.87
2019-04-05T01:18:21.111Z,17.50
2019-04-05T01:20:49.775Z,18.50
2019-04-05T01:23:18.583Z,17.87
2019-04-05T01:25:47.082Z,17.03
2019-04-05T01:28:16.743Z,17.80
2019-04-05T01:30:45.179Z,19.47
2019-04-05T01:33:13.611Z,17.60
2019-04-05T01:35:42.303Z,18.90
2019-04-05T01:38:11.216Z,18.50
2019-04-05T01:40:41.247Z,18.00
2019-04-05T01:43:09.815Z,17.60
2019-04-05T01:45:38.380Z,17.53
2019-04-05T01:48:06.807Z,17.60
2019-04-05T01:50:35.311Z,15.93
2019-04-05T01:53:03.815Z,15.83
2019-04-05T01:55:32.235Z,15.50
2019-04-05T01:58:00.675Z,15.53
2019-04-05T02:00:29.103Z,17.40
2019-04-05T02:02:57.719Z,16.13
2019-04-05T02:05:26.144Z,18.13
2019-04-05T02:07:55.007Z,17.30
2019-04-05T02:10:23.519Z,17.97
2019-04-05T02:12:52.080Z,16.63
2019-04-05T02:15:28.525Z,17.77
2019-04-05T02:17:57.460Z,16.80
2019-04-05T02:20:26.324Z,16.67
2019-04-05T02:22:54.823Z,17.70
2019-04-05T02:25:23.319Z,16.73
2019-04-05T02:27:51.815Z,17.10
2019-04-05T02:30:20.384Z,17.90
2019-04-05T02:32:49.076Z,17.07
2019-04-05T02:35:17.639Z,16.33
2019-04-05T02:37:46.071Z,16.70
2019-04-05T02:40:16.544Z,16.60
2019-04-05T02:42:47.510Z,16.33
2019-04-05T02:45:18.313Z,16.57
2019-04-05T02:47:51.744Z,16.77
2019-04-05T02:50:22.183Z,16.43
2019-04-05T02:52:53.775Z,17.03
2019-04-05T02:55:23.272Z,16.97
2019-04-05T02:57:53.305Z,19.00
2019-04-05T03:00:21.703Z,18.03
2019-04-05T03:02:51.161Z,18.00
2019-04-05T03:05:21.564Z,17.57
2019-04-05T03:07:50.607Z,18.20
2019-04-05T03:10:38.563Z,17.57
2019-04-05T03:13:07.034Z,20.07
2019-04-05T03:15:35.505Z,20.13
2019-04-05T03:18:03.994Z,20.10
2019-04-05T03:20:32.767Z,19.67
2019-04-05T03:23:01.655Z,22.13
2019-04-05T03:25:30.599Z,22.90
2019-04-05T03:27:59.638Z,22.03
2019-04-05T03:30:28.184Z,21.17
2019-04-05T03:32:56.668Z,22.97
2019-04-05T03:35:25.908Z,22.03
2019-04-05T03:37:54.375Z,20.33
2019-04-05T03:40:22.780Z,22.53
2019-04-05T03:42:51.179Z,22.93
2019-04-05T03:45:19.725Z,21.63
2019-04-05T03:47:48.403Z,21.03
2019-04-05T03:50:16.803Z,20.97
2019-04-05T03:52:45.206Z,20.83
2019-04-05T03:55:13.690Z,21.23
2019-04-05T03:57:42.824Z,21.23
2019-04-05T04:00:11.566Z,21.10
2019-04-05T04:02:39.984Z,22.37
2019-04-05T04:05:08.515Z,23.77
2019-04-05T04:07:37.255Z,22.93
2019-04-05T04:10:08.739Z,23.77
2019-04-05T04:12:37.219Z,22.60
2019-04-05T04:15:14.237Z,22.23
2019-04-05T04:17:44.476Z,23.80
2019-04-05T04:20:35.527Z,25.43
2019-04-05T04:23:06.895Z,25.17
2019-04-05T04:25:36.834Z,26.33
2019-04-05T04:28:06.275Z,25.27
2019-04-05T04:30:36.519Z,24.20
2019-04-05T04:33:06.663Z,23.63
2019-04-05T04:35:35.574Z,22.53
2019-04-05T04:38:04.419Z,21.83
2019-04-05T04:40:33.192Z,21.83
2019-04-05T04:43:02.140Z,23.07
2019-04-05T04:45:31.304Z,23.17
2019-04-05T04:47:59.844Z,24.60
2019-04-05T04:50:29.385Z,23.53
2019-04-05T04:52:58.832Z,23.90
2019-04-05T04:55:27.371Z,23.50
2019-04-05T04:57:55.941Z,23.47
2019-04-05T05:00:24.794Z,22.60
2019-04-05T05:02:53.844Z,22.63
2019-04-05T05:05:22.713Z,22.10
2019-04-05T05:07:51.570Z,22.13
2019-04-05T05:10:20.128Z,23.07
2019-04-05T05:12:48.712Z,24.00
2019-04-05T05:15:19.361Z,22.07
2019-04-05T05:17:58.019Z,23.87
2019-04-05T05:20:18.558Z,22.40
2019-04-05T05:22:47.055Z,22.63
2019-04-05T05:25:16.193Z,23.20
2019-04-05T05:27:44.597Z,23.27
2019-04-05T05:30:13.142Z,22.53
2019-04-05T05:32:41.885Z,22.87
2019-04-05T05:35:10.431Z,22.17
2019-04-05T05:37:38.913Z,22.13
2019-04-05T05:40:10.458Z,22.80
2019-04-05T05:42:38.863Z,21.47
2019-04-05T05:45:08.243Z,23.27
2019-04-05T05:47:36.634Z,23.13
2019-04-05T05:50:07.952Z,22.80
2019-04-05T05:52:37.320Z,22.80
2019-04-05T05:55:07.363Z,23.33
2019-04-05T05:57:35.760Z,22.50
2019-04-05T06:00:07.375Z,22.13
2019-04-05T06:02:36.459Z,24.17
2019-04-05T06:05:06.738Z,23.27
2019-04-05T06:07:35.154Z,24.00
2019-04-05T06:10:07.108Z,23.57
2019-04-05T06:12:35.522Z,25.53
2019-04-05T06:15:05.995Z,23.67
2019-04-05T06:17:34.395Z,24.90
2019-04-05T06:20:02.798Z,23.53
2019-04-05T06:22:31.228Z,22.70
2019-04-05T06:24:59.636Z,23.93
2019-04-05T06:27:28.042Z,24.40
2019-04-05T06:29:56.494Z,25.53
2019-04-05T06:32:24.896Z,26.03
2019-04-05T06:34:53.306Z,26.37
2019-04-05T06:37:21.710Z,24.33
2019-04-05T06:39:50.116Z,24.77
2019-04-05T06:42:18.521Z,24.03
2019-04-05T06:44:46.915Z,25.17
2019-04-05T06:47:15.351Z,25.33
2019-04-05T06:49:43.806Z,24.80
2019-04-05T06:52:12.210Z,24.23
2019-04-05T06:54:40.619Z,24.57
2019-04-05T06:57:09.018Z,23.53
2019-04-05T06:59:37.439Z,23.73
2019-04-05T07:02:06.175Z,22.57
2019-04-05T07:04:34.581Z,22.47
2019-04-05T07:07:02.995Z,21.97
2019-04-05T07:09:33.945Z,21.40
2019-04-05T07:12:01.527Z,19.83
2019-04-05T07:14:29.943Z,20.27
2019-04-05T07:16:58.349Z,20.70
2019-04-05T07:19:27.086Z,20.23
2019-04-05T07:21:55.498Z,20.10
2019-04-05T07:24:23.906Z,20.63
2019-04-05T07:26:52.381Z,20.03
2019-04-05T07:29:20.788Z,20.63
2019-04-05T07:31:49.188Z,21.33
2019-04-05T07:34:17.595Z,18.87
2019-04-05T07:36:46.019Z,18.63
2019-04-05T07:39:14.434Z,18.77
2019-04-05T07:41:42.835Z,18.30
2019-04-05T07:44:11.241Z,19.60
2019-04-05T07:46:39.639Z,18.60
2019-04-05T07:49:08.051Z,19.27
2019-04-05T07:51:36.531Z,19.17
2019-04-05T07:54:05.078Z,18.60
2019-04-05T07:56:33.559Z,19.97
2019-04-05T07:59:01.987Z,19.50
2019-04-05T08:01:30.462Z,19.73
2019-04-05T08:03:58.862Z,19.20
2019-04-05T08:06:27.706Z,19.43
2019-04-05T08:09:08.132Z,18.73
2019-04-05T08:11:37.407Z,18.03
2019-04-05T08:14:05.964Z,19.37
2019-04-05T08:16:34.634Z,18.93
2019-04-05T08:19:03.045Z,18.27
2019-04-05T08:21:31.444Z,19.30
2019-04-05T08:23:59.919Z,18.43
2019-04-05T08:26:28.327Z,18.20
2019-04-05T08:28:56.745Z,18.30
2019-04-05T08:31:25.140Z,18.63
2019-04-05T08:33:53.552Z,18.33
2019-04-05T08:36:21.959Z,19.83
2019-04-05T08:38:50.359Z,18.53
2019-04-05T08:41:18.934Z,19.23
2019-04-05T08:43:47.506Z,19.53
2019-04-05T08:46:16.719Z,19.77
2019-04-05T08:48:45.126Z,18.67
2019-04-05T08:51:13.524Z,19.47
2019-04-05T08:53:41.931Z,19.00
2019-04-05T08:56:10.335Z,19.33
2019-04-05T08:58:38.742Z,19.40
2019-04-05T09:01:07.152Z,19.30
2019-04-05T09:03:35.556Z,19.60
2019-04-05T09:06:04.039Z,19.17
2019-04-05T09:08:33.643Z,20.03
2019-04-05T09:11:02.023Z,20.10
2019-04-05T09:13:30.442Z,20.07
2019-04-05T09:15:59.014Z,21.00
2019-04-05T09:18:27.494Z,19.63
2019-04-05T09:20:55.914Z,19.33
2019-04-05T09:23:23.986Z,19.73
2019-04-05T09:25:52.396Z,19.30
2019-04-05T09:28:20.802Z,19.73
2019-04-05T09:30:51.657Z,18.70
2019-04-05T09:33:19.344Z,18.67
2019-04-05T09:35:47.820Z,19.80
2019-04-05T09:38:16.222Z,17.90
2019-04-05T09:40:44.627Z,17.97
2019-04-05T09:43:13.052Z,17.30
2019-04-05T09:45:41.443Z,17.40
2019-04-05T09:48:10.163Z,16.73
2019-04-05T09:50:38.578Z,16.13
2019-04-05T09:53:06.982Z,16.20
2019-04-05T09:55:35.387Z,16.53
2019-04-05T09:58:04.031Z,17.50
2019-04-05T10:00:32.426Z,16.63
2019-04-05T10:03:00.906Z,15.60
2019-04-05T10:05:29.322Z,16.83
2019-04-05T10:07:57.728Z,15.73
2019-04-05T10:10:26.206Z,15.80
2019-04-05T10:12:55.054Z,15.47
2019-04-05T10:15:23.558Z,15.17
2019-04-05T10:17:51.959Z,14.43
2019-04-05T10:20:20.502Z,15.03
2019-04-05T10:22:48.913Z,14.83
2019-04-05T10:25:17.306Z,15.30
2019-04-05T10:27:45.715Z,15.93
2019-04-05T10:30:15.042Z,15.77
2019-04-05T10:32:45.973Z,15.77
2019-04-05T10:35:13.959Z,16.03
2019-04-05T10:37:42.362Z,16.20
2019-04-05T10:40:12.003Z,14.83
2019-04-05T10:42:40.410Z,14.53
2019-04-05T10:45:11.122Z,15.17
2019-04-05T10:47:39.622Z,14.80
2019-04-05T10:50:10.519Z,15.90
2019-04-05T10:52:39.194Z,15.03
2019-04-05T10:55:08.404Z,15.97
2019-04-05T10:57:36.899Z,14.67
2019-04-05T11:00:08.379Z,16.20
2019-04-05T11:02:36.788Z,15.17
2019-04-05T11:05:05.531Z,15.10
2019-04-05T11:07:35.183Z,15.37
2019-04-05T11:10:05.930Z,15.17
2019-04-05T11:12:34.419Z,15.20
2019-04-05T11:15:03.963Z,15.03
2019-04-05T11:17:32.362Z,15.43
2019-04-05T11:20:00.775Z,14.87
2019-04-05T11:22:29.178Z,14.40
2019-04-05T11:24:57.581Z,15.03
2019-04-05T11:27:26.022Z,13.87
2019-04-05T11:29:54.430Z,13.67
2019-04-05T11:32:22.902Z,13.37
2019-04-05T11:34:51.578Z,13.87
2019-04-05T11:37:20.251Z,13.73
2019-04-05T11:39:48.743Z,13.87
2019-04-05T11:42:19.190Z,13.43
2019-04-05T11:44:53.497Z,14.97
2019-04-05T11:47:20.695Z,13.17
2019-04-05T11:49:50.150Z,15.47
2019-04-05T11:52:18.827Z,14.27
2019-04-05T11:54:47.519Z,13.83
2019-04-05T11:57:15.923Z,13.80
2019-04-05T11:59:44.326Z,12.80
2019-04-05T12:02:20.063Z,12.40
2019-04-05T12:04:48.475Z,13.03
2019-04-05T12:07:16.886Z,12.33
2019-04-05T12:09:45.987Z,12.67
2019-04-05T12:12:15.447Z,12.87
2019-04-05T12:14:43.855Z,14.10
2019-04-05T12:17:12.260Z,13.57
2019-04-05T12:19:40.768Z,13.20
2019-04-05T12:22:09.414Z,12.93
2019-04-05T12:24:38.067Z,14.20
2019-04-05T12:27:06.555Z,14.40
2019-04-05T12:29:34.967Z,12.43
2019-04-05T12:32:03.439Z,13.17
2019-04-05T12:34:31.848Z,13.10
2019-04-05T12:37:00.259Z,12.90
2019-04-05T12:39:28.896Z,12.87
2019-04-05T12:41:57.299Z,11.73
2019-04-05T12:44:25.722Z,11.80
2019-04-05T12:49:22.304Z,11.63
2019-04-05T12:51:50.845Z,12.30
2019-04-05T12:54:19.249Z,11.67
2019-04-05T12:56:47.651Z,11.67
2019-04-05T12:59:16.050Z,13.40
2019-04-05T13:01:45.719Z,12.60
2019-04-05T13:04:14.847Z,12.37
2019-04-05T13:06:43.256Z,12.43
2019-04-05T13:09:13.033Z,12.40
2019-04-05T13:11:41.736Z,11.73
2019-04-05T13:14:10.208Z,12.20
2019-04-05T13:16:38.602Z,12.80
2019-04-05T13:19:07.011Z,12.90
2019-04-05T13:21:35.427Z,13.90
2019-04-05T13:24:04.642Z,13.43
2019-04-05T13:26:36.689Z,13.57
2019-04-05T13:29:04.335Z,13.43
2019-04-05T13:31:32.746Z,13.13
2019-04-05T13:34:01.159Z,14.10
2019-04-05T13:36:29.575Z,13.57
2019-04-05T13:39:00.344Z,14.27
2019-04-05T13:41:31.476Z,13.83
2019-04-05T13:44:01.219Z,13.90
2019-04-05T13:46:28.374Z,14.23
2019-04-05T13:48:56.782Z,14.50
2019-04-05T13:51:28.544Z,14.57
2019-04-05T13:53:55.360Z,14.40
2019-04-05T13:56:23.766Z,14.63
2019-04-05T13:58:52.229Z,15.60
2019-04-05T14:01:21.366Z,15.17
2019-04-05T14:03:50.336Z,15.60
2019-04-05T14:06:19.188Z,15.63
2019-04-05T14:08:47.586Z,14.87
2019-04-05T14:11:15.986Z,15.67
2019-04-05T14:13:44.401Z,15.67
2019-04-05T14:16:13.149Z,15.47
2019-04-05T14:18:45.725Z,15.37
2019-04-05T14:21:11.870Z,16.10
2019-04-05T14:23:40.274Z,15.80
2019-04-05T14:26:08.681Z,15.70
2019-04-05T14:28:37.120Z,16.47
2019-04-05T14:31:05.524Z,16.73
2019-04-05T14:33:33.975Z,17.07
2019-04-05T14:36:02.562Z,17.47
2019-04-05T14:38:31.429Z,17.07
2019-04-05T14:41:00.047Z,17.00
2019-04-05T14:43:28.472Z,17.33
2019-04-05T14:45:56.871Z,15.70
2019-04-05T14:48:27.472Z,16.27
2019-04-05T14:50:55.568Z,16.67
2019-04-05T14:53:25.550Z,16.17
2019-04-05T14:55:53.951Z,16.13
2019-04-05T14:58:22.431Z,16.83
2019-04-05T15:00:50.837Z,17.83
2019-04-05T15:03:19.235Z,17.10
2019-04-05T15:05:47.814Z,17.17
2019-04-05T15:08:16.231Z,16.83
2019-04-05T15:10:44.945Z,16.33
2019-04-05T15:13:13.335Z,17.53
2019-04-05T15:15:41.740Z,17.00
2019-04-05T15:18:10.149Z,18.20
2019-04-05T15:20:38.551Z,18.23
2019-04-05T15:23:09.411Z,18.10
2019-04-05T15:25:37.091Z,19.43
2019-04-05T15:28:05.510Z,19.20
2019-04-05T15:30:33.967Z,18.63
2019-04-05T15:33:03.867Z,18.60
2019-04-05T15:35:32.274Z,18.43
2019-04-05T15:38:02.099Z,18.43
2019-04-05T15:40:30.907Z,17.83
2019-04-05T15:43:00.114Z,18.57
2019-04-05T15:45:28.588Z,17.43
2019-04-05T15:47:57.026Z,17.60
2019-04-05T15:50:25.427Z,17.67
2019-04-05T15:52:53.826Z,17.90
2019-04-05T15:55:22.243Z,18.17
2019-04-05T15:57:50.652Z,16.13
2019-04-05T16:00:25.739Z,18.53
2019-04-05T16:02:52.954Z,17.87
2019-04-05T16:05:21.902Z,18.00
2019-04-05T16:07:50.307Z,18.47
2019-04-05T16:10:19.202Z,17.13
2019-04-05T16:12:47.747Z,18.10
2019-04-05T16:15:16.221Z,18.57
2019-04-05T16:17:44.708Z,17.33
2019-04-05T16:20:13.750Z,18.47
2019-04-05T16:22:42.491Z,18.23
2019-04-05T16:25:11.692Z,17.50
2019-04-05T16:27:40.096Z,18.13
2019-04-05T16:30:10.149Z,19.27
2019-04-05T16:32:38.550Z,18.33
2019-04-05T16:35:07.101Z,18.67
2019-04-05T16:37:35.572Z,18.73
2019-04-05T16:40:06.141Z,18.80
2019-04-05T16:42:34.539Z,19.47
2019-04-05T16:45:03.487Z,17.90
2019-04-05T16:47:31.890Z,19.67
2019-04-05T16:50:00.290Z,19.83
2019-04-05T16:52:28.690Z,19.67
2019-04-05T16:54:57.098Z,19.93
2019-04-05T16:57:25.506Z,18.80
2019-04-05T16:59:53.911Z,19.20
2019-04-05T17:02:22.317Z,20.53
2019-04-05T17:04:50.782Z,19.80
2019-04-05T17:07:19.224Z,20.60
2019-04-05T17:12:15.518Z,22.50
2019-04-05T17:14:43.922Z,22.90
2019-04-05T17:17:12.326Z,21.60
2019-04-05T17:19:40.974Z,22.00
2019-04-05T17:22:09.394Z,22.67
2019-04-05T17:24:37.779Z,22.40
2019-04-05T17:27:06.266Z,23.53
2019-04-05T17:29:34.674Z,23.83
2019-04-05T17:32:03.071Z,24.13
2019-04-05T17:34:31.479Z,25.90
2019-04-05T17:36:59.881Z,24.67
2019-04-05T17:39:28.286Z,24.63
2019-04-05T17:41:56.694Z,23.97
2019-04-05T17:44:25.104Z,26.20
2019-04-05T17:46:53.498Z,26.63
2019-04-05T17:49:21.910Z,24.57
2019-04-05T17:51:50.391Z,25.77
2019-04-05T17:54:18.795Z,24.10
2019-04-05T17:56:47.346Z,24.83
2019-04-05T17:59:16.789Z,26.20
2019-04-05T18:01:45.186Z,25.27
2019-04-05T18:04:13.676Z,25.60
2019-04-05T18:06:42.079Z,25.03
2019-04-05T18:09:10.478Z,25.67
2019-04-05T18:11:38.910Z,24.97
2019-04-05T18:14:07.312Z,26.27
2019-04-05T18:16:35.716Z,25.53
2019-04-05T18:19:04.126Z,24.87
2019-04-05T18:21:32.527Z,25.33
2019-04-05T18:24:00.931Z,25.87
2019-04-05T18:26:29.342Z,24.57
2019-04-05T18:28:57.746Z,24.17
2019-04-05T18:31:26.146Z,24.80
2019-04-05T18:33:54.560Z,23.90
2019-04-05T18:36:22.967Z,24.80
2019-04-05T18:38:51.405Z,25.07
2019-04-05T18:41:19.825Z,23.93
2019-04-05T18:43:48.258Z,25.13
2019-04-05T18:46:16.678Z,25.13
2019-04-05T18:48:45.115Z,24.10
2019-04-05T18:51:13.518Z,24.07
2019-04-05T18:53:42.187Z,23.17
2019-04-05T18:56:10.616Z,23.87
2019-04-05T18:58:39.029Z,24.63
2019-04-05T19:01:07.499Z,24.23
2019-04-05T19:03:35.937Z,23.47
2019-04-05T19:06:04.456Z,22.60
2019-04-05T19:08:39.566Z,24.03
2019-04-05T19:11:03.003Z,23.07
2019-04-05T19:13:31.480Z,26.77
2019-04-05T19:15:59.902Z,27.23
2019-04-05T19:18:28.381Z,28.77
2019-04-05T19:20:56.903Z,32.27
2019-04-05T19:23:25.302Z,31.87
2019-04-05T19:25:53.711Z,28.07
2019-04-05T19:28:22.110Z,28.60
2019-04-05T19:50:51.611Z,28.53
2019-04-05T19:53:20.015Z,29.73
2019-04-05T19:55:48.431Z,31.37
2019-04-05T19:58:16.834Z,31.20
2019-04-05T20:00:45.239Z,29.80
2019-04-05T20:03:13.650Z,31.23
2019-04-05T20:05:42.050Z,30.90
2019-04-05T20:08:10.464Z,29.60
2019-04-05T20:10:38.920Z,30.63
2019-04-05T20:13:07.354Z,31.23
2019-04-05T20:15:35.754Z,31.57
2019-04-05T20:18:04.241Z,31.57
2019-04-05T20:20:32.643Z,32.63
2019-04-05T20:23:01.048Z,32.70
2019-04-05T20:25:29.462Z,30.93
2019-04-05T20:27:57.867Z,33.40
2019-04-05T20:30:26.344Z,32.70
2019-04-05T20:32:54.754Z,31.77
2019-04-05T20:35:23.178Z,33.20
2019-04-05T20:37:51.574Z,33.33
2019-04-05T20:40:19.979Z,32.90
2019-04-05T20:42:48.395Z,33.50
2019-04-05T20:45:17.055Z,33.87
2019-04-05T20:47:45.459Z,35.67
2019-04-05T20:50:13.886Z,33.70
2019-04-05T20:52:42.289Z,34.83
2019-04-05T20:55:10.762Z,32.47
2019-04-05T20:57:39.191Z,33.47
2019-04-05T21:00:09.204Z,34.30
2019-04-05T21:02:37.783Z,34.37
2019-04-05T21:05:07.139Z,35.00
2019-04-05T21:07:35.534Z,34.73
2019-04-05T21:10:06.858Z,34.53
2019-04-05T21:12:35.252Z,33.60
2019-04-05T21:15:04.743Z,35.03
2019-04-05T21:17:33.146Z,35.57
2019-04-05T21:20:01.551Z,34.67
2019-04-05T21:22:30.007Z,36.13
2019-04-05T21:24:58.445Z,35.70
2019-04-05T21:27:26.871Z,35.77
2019-04-05T21:29:55.316Z,35.93
2019-04-05T21:32:23.749Z,36.00
2019-04-05T21:34:52.176Z,34.60
2019-04-05T21:37:20.689Z,36.80
2019-04-05T21:39:49.119Z,36.07
2019-04-05T21:42:17.551Z,36.40
2019-04-05T21:44:46.457Z,36.23
2019-04-05T21:47:15.087Z,35.47
2019-04-05T21:49:43.524Z,36.83
2019-04-05T21:52:11.963Z,35.57
2019-04-05T21:54:47.384Z,36.13
2019-04-05T21:57:10.538Z,37.13
2019-04-05T21:59:38.999Z,37.27
2019-04-05T22:02:07.795Z,36.83
2019-04-05T22:04:36.219Z,37.27
2019-04-05T22:07:05.112Z,39.40
2019-04-05T22:09:33.541Z,38.00
2019-04-05T22:12:01.965Z,39.70
2019-04-05T22:14:30.432Z,37.97
2019-04-05T22:16:58.878Z,36.97
2019-04-05T22:19:27.318Z,40.13
2019-04-05T22:21:56.278Z,38.30
2019-04-05T22:24:24.741Z,39.30
2019-04-05T22:26:53.260Z,39.30
2019-04-05T22:29:21.776Z,39.63
2019-04-05T22:31:50.214Z,38.13
2019-04-05T22:34:18.653Z,37.87
2019-04-05T22:36:47.107Z,37.27
2019-04-05T22:39:15.547Z,37.90
2019-04-05T22:41:44.005Z,37.87
2019-04-05T22:44:12.437Z,38.37
2019-04-05T22:46:40.899Z,37.03
2019-04-05T22:49:09.338Z,37.27
2019-04-05T22:51:37.777Z,38.93
2019-04-05T22:54:06.229Z,39.30
2019-04-05T22:56:34.667Z,36.90
2019-04-05T22:59:03.154Z,39.00
2019-04-05T23:01:31.636Z,39.27
2019-04-05T23:04:00.154Z,40.03
2019-04-05T23:06:28.593Z,40.13
2019-04-05T23:08:57.047Z,39.07
2019-04-05T23:11:25.490Z,38.70
2019-04-05T23:13:53.930Z,39.80
2019-04-05T23:16:22.373Z,37.67
2019-04-05T23:18:50.818Z,39.77
2019-04-05T23:21:19.270Z,38.23
2019-04-05T23:23:47.721Z,39.63
2019-04-05T23:26:16.166Z,41.20
2019-04-05T23:28:44.615Z,41.10
2019-04-05T23:31:13.059Z,40.43
2019-04-05T23:33:41.518Z,40.13
2019-04-05T23:36:09.968Z,41.37
2019-04-05T23:38:38.409Z,40.20
2019-04-05T23:41:06.926Z,41.27
2019-04-05T23:43:35.370Z,41.17
2019-04-05T23:46:03.809Z,42.23
2019-04-05T23:48:32.261Z,42.90
2019-04-05T23:51:00.726Z,43.93
2019-04-05T23:53:29.190Z,41.87
2019-04-05T23:55:57.732Z,41.40
2019-04-05T23:58:26.170Z,41.63
